sensor_id;sensor_type;location;lat;lon;timestamp;pressure;altitude;pressure_sealevel;temperature;humidity
62152;BME280;48139;47.474;19.034;2022-12-07T04:49:01;100368.84;;;4.04;100.00
62152;BME280;48139;47.474;19.034;2022-12-07T04:52:04;100368.84;;;4.04;100.00
62152;BME280;48139;47.474;19.034;2022-12-07T04:55:07;100376.56;;;3.62;100.00
62152;BME280;48139;47.474;19.034;2022-12-07T04:58:10;100376.41;;;3.72;100.00
62152;BME280;48139;47.474;19.034;2022-12-07T05:01:13;100376.31;;;3.76;100.00
62152;BME280;48139;47.474;19.034;2022-12-07T05:04:16;100372.84;;;3.77;100.00
62152;BME280;48139;47.474;19.034;2022-12-07T05:07:19;100378.72;;;3.85;100.00
62152;BME280;48139;47.474;19.034;2022-12-07T05:10:22;100374.28;;;3.93;100.00
62152;BME280;48139;47.474;19.034;2022-12-07T05:13:24;100364.59;;;4.00;100.00
62152;BME280;48139;47.474;19.034;2022-12-07T05:16:27;100365.56;;;3.96;100.00
62152;BME280;48139;47.474;19.034;2022-12-07T05:19:29;100364.91;;;3.86;100.00
62152;BME280;48139;47.474;19.034;2022-12-07T05:22:32;100368.41;;;3.82;100.00
62152;BME280;48139;47.474;19.034;2022-12-07T05:25:34;100371.84;;;3.84;100.00
62152;BME280;48139;47.474;19.034;2022-12-07T05:28:37;100379.63;;;3.84;100.00
62152;BME280;48139;47.474;19.034;2022-12-07T05:31:40;100365.06;;;3.77;100.00
62152;BME280;48139;47.474;19.034;2022-12-07T05:34:43;100364.22;;;3.75;100.00
62152;BME280;48139;47.474;19.034;2022-12-07T05:37:45;100346.06;;;3.77;100.00
62152;BME280;48139;47.474;19.034;2022-12-07T05:40:48;100349.28;;;3.89;100.00
62152;BME280;48139;47.474;19.034;2022-12-07T05:43:50;100352.59;;;3.96;100.00
62152;BME280;48139;47.474;19.034;2022-12-07T05:46:54;100352.59;;;3.96;100.00
62152;BME280;48139;47.474;19.034;2022-12-07T05:49:56;100349.78;;;4.06;100.00
62152;BME280;48139;47.474;19.034;2022-12-07T05:52:59;100350.59;;;4.09;100.00
62152;BME280;48139;47.474;19.034;2022-12-07T05:56:02;100361.09;;;4.02;100.00
62152;BME280;48139;47.474;19.034;2022-12-07T05:59:05;100356.81;;;4.01;100.00
62152;BME280;48139;47.474;19.034;2022-12-07T06:02:25;100359.91;;;3.76;100.00
62152;BME280;48139;47.474;19.034;2022-12-07T06:05:29;100367.03;;;3.64;100.00
62152;BME280;48139;47.474;19.034;2022-12-07T06:08:32;100363.56;;;3.65;100.00
62152;BME280;48139;47.474;19.034;2022-12-07T06:11:35;100358.53;;;3.56;100.00
62152;BME280;48139;47.474;19.034;2022-12-07T06:14:57;100369.00;;;3.52;100.00
62152;BME280;48139;47.474;19.034;2022-12-07T06:18:00;100364.53;;;3.60;100.00
62152;BME280;48139;47.474;19.034;2022-12-07T06:21:02;100361.81;;;3.68;100.00
62152;BME280;48139;47.474;19.034;2022-12-07T06:24:06;100358.28;;;3.72;100.00
62152;BME280;48139;47.474;19.034;2022-12-07T06:27:09;100356.69;;;3.64;100.00
62152;BME280;48139;47.474;19.034;2022-12-07T06:30:12;100363.69;;;3.58;100.00
62152;BME280;48139;47.474;19.034;2022-12-07T06:33:14;100373.28;;;3.54;100.00
62152;BME280;48139;47.474;19.034;2022-12-07T06:36:17;100367.03;;;3.64;100.00
62152;BME280;48139;47.474;19.034;2022-12-07T06:39:27;100366.03;;;3.73;100.00
62152;BME280;48139;47.474;19.034;2022-12-07T06:42:31;100372.75;;;3.82;100.00
62152;BME280;48139;47.474;19.034;2022-12-07T06:45:33;100378.75;;;3.84;100.00
62152;BME280;48139;47.474;19.034;2022-12-07T06:48:36;100370.97;;;3.85;100.00
62152;BME280;48139;47.474;19.034;2022-12-07T06:51:38;100377.88;;;3.85;100.00
62152;BME280;48139;47.474;19.034;2022-12-07T06:54:43;100375.28;;;3.86;100.00
62152;BME280;48139;47.474;19.034;2022-12-07T06:57:47;100376.78;;;3.96;100.00
62152;BME280;48139;47.474;19.034;2022-12-07T07:00:49;100382.44;;;4.15;100.00
62152;BME280;48139;47.474;19.034;2022-12-07T07:03:52;100377.97;;;4.23;100.00
62152;BME280;48139;47.474;19.034;2022-12-07T07:06:55;100375.97;;;4.36;100.00
62152;BME280;48139;47.474;19.034;2022-12-07T07:10:02;100377.50;;;4.44;100.00
62152;BME280;48139;47.474;19.034;2022-12-07T07:13:06;100374.00;;;4.47;100.00
62152;BME280;48139;47.474;19.034;2022-12-07T07:16:08;100370.38;;;4.54;100.00
62152;BME280;48139;47.474;19.034;2022-12-07T07:19:12;100369.72;;;4.44;100.00
62152;BME280;48139;47.474;19.034;2022-12-07T07:22:15;100373.03;;;4.51;100.00
62152;BME280;48139;47.474;19.034;2022-12-07T07:25:18;100377.06;;;4.63;100.00
62152;BME280;48139;47.474;19.034;2022-12-07T07:28:22;100383.81;;;4.71;100.00
62152;BME280;48139;47.474;19.034;2022-12-07T07:31:24;100382.00;;;4.75;100.00
62152;BME280;48139;47.474;19.034;2022-12-07T07:34:27;100381.50;;;4.59;100.00
62152;BME280;48139;47.474;19.034;2022-12-07T07:37:30;100393.00;;;4.47;100.00
62152;BME280;48139;47.474;19.034;2022-12-07T07:40:32;100381.78;;;4.47;100.00
62152;BME280;48139;47.474;19.034;2022-12-07T07:43:35;100383.06;;;4.66;100.00
62152;BME280;48139;47.474;19.034;2022-12-07T07:46:37;100377.38;;;4.87;100.00
62152;BME280;48139;47.474;19.034;2022-12-07T07:49:40;100376.13;;;5.04;100.00
62152;BME280;48139;47.474;19.034;2022-12-07T07:52:50;100377.69;;;5.11;100.00
62152;BME280;48139;47.474;19.034;2022-12-07T07:55:54;100370.94;;;5.04;100.00
62152;BME280;48139;47.474;19.034;2022-12-07T07:58:56;100378.56;;;5.10;100.00
62152;BME280;48139;47.474;19.034;2022-12-07T08:01:59;100370.53;;;5.19;100.00
62152;BME280;48139;47.474;19.034;2022-12-07T08:05:02;100380.84;;;5.23;100.00
62152;BME280;48139;47.474;19.034;2022-12-07T08:08:04;100379.72;;;5.34;100.00
62152;BME280;48139;47.474;19.034;2022-12-07T08:11:08;100371.53;;;5.49;100.00
62152;BME280;48139;47.474;19.034;2022-12-07T08:14:11;100382.69;;;5.52;100.00
62152;BME280;48139;47.474;19.034;2022-12-07T08:17:14;100396.34;;;5.60;100.00
62152;BME280;48139;47.474;19.034;2022-12-07T08:20:16;100386.50;;;5.72;100.00
62152;BME280;48139;47.474;19.034;2022-12-07T08:23:19;100392.28;;;5.81;100.00
62152;BME280;48139;47.474;19.034;2022-12-07T08:26:28;100391.47;;;5.81;100.00
62152;BME280;48139;47.474;19.034;2022-12-07T08:29:31;100384.97;;;5.97;100.00
62152;BME280;48139;47.474;19.034;2022-12-07T08:32:34;100392.56;;;6.04;100.00
62152;BME280;48139;47.474;19.034;2022-12-07T08:35:36;100392.41;;;6.11;100.00
62152;BME280;48139;47.474;19.034;2022-12-07T08:38:40;100401.94;;;6.10;100.00
62152;BME280;48139;47.474;19.034;2022-12-07T08:41:57;100401.56;;;6.24;100.00
62152;BME280;48139;47.474;19.034;2022-12-07T08:45:00;100401.28;;;6.33;100.00
62152;BME280;48139;47.474;19.034;2022-12-07T08:48:06;100402.72;;;6.43;99.46
62152;BME280;48139;47.474;19.034;2022-12-07T08:51:10;100402.56;;;6.49;99.22
62152;BME280;48139;47.474;19.034;2022-12-07T08:54:16;100400.53;;;6.57;98.56
62152;BME280;48139;47.474;19.034;2022-12-07T08:57:18;100391.59;;;6.67;98.11
62152;BME280;48139;47.474;19.034;2022-12-07T09:00:22;100391.66;;;6.64;97.30
62152;BME280;48139;47.474;19.034;2022-12-07T09:03:24;100398.38;;;6.71;98.81
62152;BME280;48139;47.474;19.034;2022-12-07T09:06:28;100390.84;;;6.62;96.23
62152;BME280;48139;47.474;19.034;2022-12-07T09:09:31;100398.25;;;6.76;96.00
62152;BME280;48139;47.474;19.034;2022-12-07T09:12:34;100406.31;;;6.95;97.91
62152;BME280;48139;47.474;19.034;2022-12-07T09:15:36;100393.41;;;6.92;96.44
62152;BME280;48139;47.474;19.034;2022-12-07T09:18:39;100389.56;;;7.03;93.21
62152;BME280;48139;47.474;19.034;2022-12-07T09:21:41;100378.91;;;7.11;91.75
62152;BME280;48139;47.474;19.034;2022-12-07T09:24:44;100385.56;;;7.19;89.33
62152;BME280;48139;47.474;19.034;2022-12-07T09:27:47;100379.16;;;7.29;89.98
62152;BME280;48139;47.474;19.034;2022-12-07T09:30:50;100375.38;;;7.38;90.01
62152;BME280;48139;47.474;19.034;2022-12-07T09:34:13;100378.97;;;7.36;87.41
62152;BME280;48139;47.474;19.034;2022-12-07T09:37:15;100379.81;;;7.36;88.55
62152;BME280;48139;47.474;19.034;2022-12-07T09:40:19;100375.16;;;7.44;86.31
62152;BME280;48139;47.474;19.034;2022-12-07T09:43:24;100374.00;;;7.28;85.22
62152;BME280;48139;47.474;19.034;2022-12-07T09:46:27;100369.78;;;7.24;88.46
62152;BME280;48139;47.474;19.034;2022-12-07T09:49:31;100367.00;;;7.30;86.02
62152;BME280;48139;47.474;19.034;2022-12-07T09:52:35;100367.53;;;7.64;84.40
62152;BME280;48139;47.474;19.034;2022-12-07T09:55:41;100355.44;;;7.87;85.71
62152;BME280;48139;47.474;19.034;2022-12-07T09:58:45;100362.28;;;7.89;82.95
62152;BME280;48139;47.474;19.034;2022-12-07T10:01:49;100357.19;;;7.86;82.41
62152;BME280;48139;47.474;19.034;2022-12-07T10:04:52;100352.84;;;7.87;81.33
62152;BME280;48139;47.474;19.034;2022-12-07T10:07:55;100348.41;;;7.89;80.81
62152;BME280;48139;47.474;19.034;2022-12-07T10:10:59;100353.06;;;8.04;81.22
62152;BME280;48139;47.474;19.034;2022-12-07T10:14:13;100351.00;;;8.12;78.89
62152;BME280;48139;47.474;19.034;2022-12-07T10:17:40;100344.84;;;8.15;78.52
62152;BME280;48139;47.474;19.034;2022-12-07T10:20:45;100345.87;;;8.10;81.08
62152;BME280;48139;47.474;19.034;2022-12-07T10:24:22;100348.22;;;7.93;82.92
62152;BME280;48139;47.474;19.034;2022-12-07T10:27:32;100346.69;;;7.88;82.92
62152;BME280;48139;47.474;19.034;2022-12-07T10:33:56;100339.44;;;7.96;80.76
62152;BME280;48139;47.474;19.034;2022-12-07T10:37:15;100339.00;;;7.85;80.72
62152;BME280;48139;47.474;19.034;2022-12-07T10:40:38;100323.41;;;7.83;80.47
62152;BME280;48139;47.474;19.034;2022-12-07T10:43:49;100328.66;;;7.82;77.19
62152;BME280;48139;47.474;19.034;2022-12-07T10:54:09;100334.00;;;8.02;77.20
62152;BME280;48139;47.474;19.034;2022-12-07T11:01:10;100329.59;;;7.81;78.71
62152;BME280;48139;47.474;19.034;2022-12-07T11:10:55;100328.37;;;7.41;77.33
62152;BME280;48139;47.474;19.034;2022-12-07T11:14:37;100328.13;;;7.49;80.37
62152;BME280;48139;47.474;19.034;2022-12-07T11:24:16;100313.62;;;7.88;74.11
62152;BME280;48139;47.474;19.034;2022-12-07T11:27:41;100311.16;;;7.85;75.54
62152;BME280;48139;47.474;19.034;2022-12-07T11:31:12;100316.41;;;7.84;74.89
62152;BME280;48139;47.474;19.034;2022-12-07T11:37:35;100306.62;;;7.67;74.63
62152;BME280;48139;47.474;19.034;2022-12-07T11:40:48;100310.38;;;7.58;74.49
62152;BME280;48139;47.474;19.034;2022-12-07T11:44:31;100312.47;;;7.49;75.23
62152;BME280;48139;47.474;19.034;2022-12-07T11:47:58;100304.53;;;7.52;77.36
62152;BME280;48139;47.474;19.034;2022-12-07T11:51:03;100310.56;;;7.54;78.14
62152;BME280;48139;47.474;19.034;2022-12-07T11:54:30;100312.59;;;7.69;75.62
62152;BME280;48139;47.474;19.034;2022-12-07T11:57:41;100322.53;;;7.83;76.79
62152;BME280;48139;47.474;19.034;2022-12-07T12:00:50;100321.75;;;7.81;76.40
62152;BME280;48139;47.474;19.034;2022-12-07T12:04:05;100319.94;;;7.83;80.22
62152;BME280;48139;47.474;19.034;2022-12-07T12:07:17;100308.88;;;7.76;77.50
62152;BME280;48139;47.474;19.034;2022-12-07T12:10:55;100315.25;;;7.92;75.64
62152;BME280;48139;47.474;19.034;2022-12-07T12:14:40;100302.31;;;7.89;74.07
62152;BME280;48139;47.474;19.034;2022-12-07T12:18:30;100293.63;;;7.89;74.51
62152;BME280;48139;47.474;19.034;2022-12-07T12:21:33;100282.47;;;7.85;74.41
62152;BME280;48139;47.474;19.034;2022-12-07T12:24:40;100276.09;;;7.69;73.99
62152;BME280;48139;47.474;19.034;2022-12-07T12:27:46;100268.69;;;7.58;74.57
62152;BME280;48139;47.474;19.034;2022-12-07T12:31:16;100266.25;;;7.54;73.81
62152;BME280;48139;47.474;19.034;2022-12-07T12:45:27;100256.12;;;7.45;74.58
62152;BME280;48139;47.474;19.034;2022-12-07T12:48:38;100255.41;;;7.41;73.41
62152;BME280;48139;47.474;19.034;2022-12-07T12:51:52;100253.75;;;7.39;72.99
62152;BME280;48139;47.474;19.034;2022-12-07T12:55:13;100252.75;;;7.43;74.06
62152;BME280;48139;47.474;19.034;2022-12-07T12:58:29;100251.78;;;7.45;73.65
62152;BME280;48139;47.474;19.034;2022-12-07T13:04:50;100266.84;;;7.62;74.00
62152;BME280;48139;47.474;19.034;2022-12-07T13:07:57;100267.16;;;7.76;73.68
62152;BME280;48139;47.474;19.034;2022-12-07T13:14:53;100269.22;;;7.68;74.95
62152;BME280;48139;47.474;19.034;2022-12-07T13:17:58;100267.81;;;7.81;76.77
62152;BME280;48139;47.474;19.034;2022-12-07T13:24:31;100266.47;;;7.94;74.60
62152;BME280;48139;47.474;19.034;2022-12-07T13:27:37;100273.28;;;7.75;75.26
62152;BME280;48139;47.474;19.034;2022-12-07T13:31:20;100276.06;;;7.70;73.42
62152;BME280;48139;47.474;19.034;2022-12-07T13:34:37;100271.50;;;7.52;69.86
62152;BME280;48139;47.474;19.034;2022-12-07T13:37:40;100278.50;;;7.27;70.89
62152;BME280;48139;47.474;19.034;2022-12-07T13:40:42;100278.91;;;7.15;72.23
62152;BME280;48139;47.474;19.034;2022-12-07T13:44:13;100279.09;;;7.10;73.92
62152;BME280;48139;47.474;19.034;2022-12-07T13:50:24;100284.25;;;6.85;74.23
62152;BME280;48139;47.474;19.034;2022-12-07T13:53:27;100289.09;;;6.70;75.00
62152;BME280;48139;47.474;19.034;2022-12-07T13:56:34;100291.87;;;6.65;75.69
62152;BME280;48139;47.474;19.034;2022-12-07T13:59:46;100295.09;;;6.73;74.66
62152;BME280;48139;47.474;19.034;2022-12-07T14:09:21;100293.25;;;6.75;74.78
62152;BME280;48139;47.474;19.034;2022-12-07T14:12:26;100293.34;;;6.74;74.20
62152;BME280;48139;47.474;19.034;2022-12-07T14:15:32;100287.78;;;6.57;77.14
62152;BME280;48139;47.474;19.034;2022-12-07T14:21:38;100287.87;;;6.55;76.11
62152;BME280;48139;47.474;19.034;2022-12-07T14:24:43;100296.25;;;6.37;78.69
62152;BME280;48139;47.474;19.034;2022-12-07T14:31:47;100303.38;;;6.30;78.64
62152;BME280;48139;47.474;19.034;2022-12-07T14:38:02;100295.50;;;6.04;84.69
62152;BME280;48139;47.474;19.034;2022-12-07T14:41:12;100291.84;;;6.11;82.17
62152;BME280;48139;47.474;19.034;2022-12-07T14:44:34;100301.37;;;6.11;80.85
62152;BME280;48139;47.474;19.034;2022-12-07T14:47:37;100308.75;;;5.95;83.99
62152;BME280;48139;47.474;19.034;2022-12-07T14:50:59;100308.28;;;5.81;85.45
62152;BME280;48139;47.474;19.034;2022-12-07T14:54:24;100312.13;;;5.67;88.66
62152;BME280;48139;47.474;19.034;2022-12-07T14:57:29;100312.22;;;5.63;89.15
62152;BME280;48139;47.474;19.034;2022-12-07T15:00:31;100310.84;;;5.50;89.82
62152;BME280;48139;47.474;19.034;2022-12-07T15:03:35;100316.44;;;5.36;90.08
62152;BME280;48139;47.474;19.034;2022-12-07T15:06:40;100318.53;;;5.22;90.23
62152;BME280;48139;47.474;19.034;2022-12-07T15:09:47;100321.28;;;5.17;90.62
62152;BME280;48139;47.474;19.034;2022-12-07T15:12:50;100321.38;;;5.13;92.17
62152;BME280;48139;47.474;19.034;2022-12-07T15:15:53;100328.06;;;5.21;93.45
62152;BME280;48139;47.474;19.034;2022-12-07T15:18:56;100329.41;;;5.04;96.31
62152;BME280;48139;47.474;19.034;2022-12-07T15:22:20;100325.91;;;5.05;96.50
62152;BME280;48139;47.474;19.034;2022-12-07T15:25:22;100337.56;;;4.88;99.17
62152;BME280;48139;47.474;19.034;2022-12-07T15:28:25;100342.84;;;4.85;99.67
62152;BME280;48139;47.474;19.034;2022-12-07T15:31:28;100339.53;;;4.79;100.00
62152;BME280;48139;47.474;19.034;2022-12-07T15:34:51;100343.75;;;4.83;98.88
62152;BME280;48139;47.474;19.034;2022-12-07T15:37:53;100342.37;;;4.68;99.39
62152;BME280;48139;47.474;19.034;2022-12-07T15:40:56;100337.81;;;4.78;94.94
62152;BME280;48139;47.474;19.034;2022-12-07T15:43:58;100348.50;;;4.66;96.66
62152;BME280;48139;47.474;19.034;2022-12-07T15:47:20;100351.25;;;4.58;98.92
62152;BME280;48139;47.474;19.034;2022-12-07T15:50:22;100361.59;;;4.60;99.33
62152;BME280;48139;47.474;19.034;2022-12-07T15:53:25;100355.00;;;4.45;100.00
62152;BME280;48139;47.474;19.034;2022-12-07T15:56:27;100363.47;;;4.53;98.93
62152;BME280;48139;47.474;19.034;2022-12-07T15:59:30;100352.56;;;4.37;100.00
62152;BME280;48139;47.474;19.034;2022-12-07T16:02:32;100362.47;;;4.19;100.00
62152;BME280;48139;47.474;19.034;2022-12-07T16:05:41;100362.47;;;4.20;100.00
62152;BME280;48139;47.474;19.034;2022-12-07T16:08:44;100365.38;;;4.05;100.00
62152;BME280;48139;47.474;19.034;2022-12-07T16:11:47;100363.97;;;3.89;100.00
62152;BME280;48139;47.474;19.034;2022-12-07T16:14:49;100367.62;;;3.80;100.00
62152;BME280;48139;47.474;19.034;2022-12-07T16:17:52;100368.41;;;3.82;100.00
62152;BME280;48139;47.474;19.034;2022-12-07T16:20:55;100362.47;;;3.77;100.00
62152;BME280;48139;47.474;19.034;2022-12-07T16:23:58;100356.50;;;3.74;100.00
62152;BME280;48139;47.474;19.034;2022-12-07T16:27:01;100352.50;;;3.57;100.00
62152;BME280;48139;47.474;19.034;2022-12-07T16:30:04;100356.97;;;3.49;100.00
62152;BME280;48139;47.474;19.034;2022-12-07T16:33:07;100361.03;;;3.62;100.00
62152;BME280;48139;47.474;19.034;2022-12-07T16:36:11;100363.16;;;3.42;100.00
62152;BME280;48139;47.474;19.034;2022-12-07T16:39:14;100362.09;;;3.52;100.00
62152;BME280;48139;47.474;19.034;2022-12-07T16:42:17;100364.97;;;3.37;100.00
62152;BME280;48139;47.474;19.034;2022-12-07T16:45:19;100373.53;;;3.41;100.00
62152;BME280;48139;47.474;19.034;2022-12-07T16:48:23;100369.44;;;3.28;100.00
